sensor_id;sensor_type;location;lat;lon;timestamp;P1;durP1;ratioP1;P2;durP2;ratioP2
45368;SDS011;51342;55.250;37.668;2023-05-10T00:03:34;5.83;;;4.80;;
45368;SDS011;51342;55.250;37.668;2023-05-10T00:06:05;5.50;;;4.40;;
45368;SDS011;51342;55.250;37.668;2023-05-10T00:08:37;8.57;;;4.10;;
45368;SDS011;51342;55.250;37.668;2023-05-10T00:11:08;6.50;;;4.83;;
45368;SDS011;51342;55.250;37.668;2023-05-10T00:13:39;7.73;;;4.43;;
45368;SDS011;51342;55.250;37.668;2023-05-10T00:16:11;6.47;;;5.00;;
45368;SDS011;51342;55.250;37.668;2023-05-10T00:18:43;7.13;;;4.80;;
45368;SDS011;51342;55.250;37.668;2023-05-10T00:21:15;6.63;;;4.73;;
45368;SDS011;51342;55.250;37.668;2023-05-10T00:23:46;6.60;;;4.37;;
45368;SDS011;51342;55.250;37.668;2023-05-10T00:26:18;7.47;;;4.70;;
45368;SDS011;51342;55.250;37.668;2023-05-10T00:28:54;7.30;;;4.40;;
45368;SDS011;51342;55.250;37.668;2023-05-10T00:31:26;7.00;;;4.20;;
45368;SDS011;51342;55.250;37.668;2023-05-10T00:33:57;5.77;;;4.13;;
45368;SDS011;51342;55.250;37.668;2023-05-10T00:36:29;6.10;;;4.47;;
45368;SDS011;51342;55.250;37.668;2023-05-10T00:39:00;8.13;;;4.53;;
45368;SDS011;51342;55.250;37.668;2023-05-10T00:41:31;6.93;;;4.57;;
45368;SDS011;51342;55.250;37.668;2023-05-10T00:44:04;8.00;;;5.67;;
45368;SDS011;51342;55.250;37.668;2023-05-10T00:46:36;7.37;;;5.10;;
45368;SDS011;51342;55.250;37.668;2023-05-10T00:49:07;7.37;;;5.17;;
45368;SDS011;51342;55.250;37.668;2023-05-10T00:51:39;7.27;;;4.87;;
45368;SDS011;51342;55.250;37.668;2023-05-10T00:54:14;8.87;;;5.37;;
45368;SDS011;51342;55.250;37.668;2023-05-10T00:56:46;5.93;;;4.60;;
45368;SDS011;51342;55.250;37.668;2023-05-10T00:59:19;8.77;;;4.90;;
45368;SDS011;51342;55.250;37.668;2023-05-10T01:01:51;9.57;;;5.43;;
45368;SDS011;51342;55.250;37.668;2023-05-10T01:04:23;8.40;;;4.70;;
45368;SDS011;51342;55.250;37.668;2023-05-10T01:06:56;8.23;;;5.00;;
45368;SDS011;51342;55.250;37.668;2023-05-10T01:09:28;8.93;;;4.67;;
45368;SDS011;51342;55.250;37.668;2023-05-10T01:11:59;6.87;;;4.80;;
45368;SDS011;51342;55.250;37.668;2023-05-10T01:14:34;7.77;;;4.40;;
45368;SDS011;51342;55.250;37.668;2023-05-10T01:17:07;6.37;;;4.77;;
45368;SDS011;51342;55.250;37.668;2023-05-10T01:19:40;7.87;;;4.67;;
45368;SDS011;51342;55.250;37.668;2023-05-10T01:36:03;9.30;;;5.70;;
45368;SDS011;51342;55.250;37.668;2023-05-10T01:41:18;7.20;;;4.65;;
45368;SDS011;51342;55.250;37.668;2023-05-10T01:44:06;7.53;;;4.53;;
45368;SDS011;51342;55.250;37.668;2023-05-10T01:49:52;5.50;;;4.77;;
45368;SDS011;51342;55.250;37.668;2023-05-10T01:52:27;6.50;;;5.20;;
45368;SDS011;51342;55.250;37.668;2023-05-10T01:55:13;8.33;;;5.33;;
45368;SDS011;51342;55.250;37.668;2023-05-10T01:57:48;7.80;;;4.77;;
45368;SDS011;51342;55.250;37.668;2023-05-10T02:00:23;7.70;;;5.23;;
45368;SDS011;51342;55.250;37.668;2023-05-10T02:02:56;6.20;;;4.73;;
45368;SDS011;51342;55.250;37.668;2023-05-10T02:05:28;7.73;;;4.70;;
45368;SDS011;51342;55.250;37.668;2023-05-10T02:08:03;7.80;;;5.23;;
45368;SDS011;51342;55.250;37.668;2023-05-10T02:10:38;6.77;;;4.70;;
45368;SDS011;51342;55.250;37.668;2023-05-10T02:13:12;8.03;;;4.50;;
45368;SDS011;51342;55.250;37.668;2023-05-10T02:15:46;7.27;;;5.27;;
45368;SDS011;51342;55.250;37.668;2023-05-10T02:18:19;6.97;;;4.50;;
45368;SDS011;51342;55.250;37.668;2023-05-10T02:20:53;5.83;;;4.37;;
45368;SDS011;51342;55.250;37.668;2023-05-10T02:23:26;7.77;;;5.17;;
45368;SDS011;51342;55.250;37.668;2023-05-10T02:25:58;7.50;;;5.07;;
45368;SDS011;51342;55.250;37.668;2023-05-10T02:28:32;6.70;;;5.27;;
45368;SDS011;51342;55.250;37.668;2023-05-10T02:31:06;6.77;;;4.93;;
45368;SDS011;51342;55.250;37.668;2023-05-10T02:33:42;7.30;;;5.63;;
45368;SDS011;51342;55.250;37.668;2023-05-10T02:36:16;7.20;;;4.90;;
45368;SDS011;51342;55.250;37.668;2023-05-10T02:38:49;7.90;;;5.53;;
45368;SDS011;51342;55.250;37.668;2023-05-10T02:41:23;7.87;;;5.50;;
45368;SDS011;51342;55.250;37.668;2023-05-10T02:43:57;8.10;;;5.67;;
45368;SDS011;51342;55.250;37.668;2023-05-10T02:46:32;6.37;;;5.43;;
45368;SDS011;51342;55.250;37.668;2023-05-10T02:49:03;7.97;;;5.77;;
45368;SDS011;51342;55.250;37.668;2023-05-10T02:51:35;7.90;;;5.93;;
45368;SDS011;51342;55.250;37.668;2023-05-10T02:54:11;7.63;;;5.40;;
45368;SDS011;51342;55.250;37.668;2023-05-10T02:56:50;8.93;;;5.80;;
45368;SDS011;51342;55.250;37.668;2023-05-10T02:59:25;7.20;;;5.27;;
45368;SDS011;51342;55.250;37.668;2023-05-10T03:01:58;7.80;;;5.30;;
45368;SDS011;51342;55.250;37.668;2023-05-10T03:04:31;8.73;;;4.80;;
45368;SDS011;51342;55.250;37.668;2023-05-10T03:07:02;6.00;;;5.23;;
45368;SDS011;51342;55.250;37.668;2023-05-10T03:09:35;6.47;;;5.23;;
45368;SDS011;51342;55.250;37.668;2023-05-10T03:20:38;6.13;;;5.43;;
45368;SDS011;51342;55.250;37.668;2023-05-10T03:23:37;7.67;;;5.37;;
45368;SDS011;51342;55.250;37.668;2023-05-10T03:26:17;9.85;;;5.68;;
45368;SDS011;51342;55.250;37.668;2023-05-10T03:28:52;6.20;;;4.90;;
45368;SDS011;51342;55.250;37.668;2023-05-10T03:31:24;6.87;;;5.17;;
45368;SDS011;51342;55.250;37.668;2023-05-10T03:33:56;7.37;;;5.50;;
45368;SDS011;51342;55.250;37.668;2023-05-10T03:36:30;7.10;;;5.43;;
45368;SDS011;51342;55.250;37.668;2023-05-10T03:39:02;7.60;;;4.90;;
45368;SDS011;51342;55.250;37.668;2023-05-10T03:41:34;6.80;;;5.20;;
45368;SDS011;51342;55.250;37.668;2023-05-10T03:44:06;9.23;;;6.57;;
45368;SDS011;51342;55.250;37.668;2023-05-10T03:46:37;6.50;;;5.47;;
45368;SDS011;51342;55.250;37.668;2023-05-10T03:49:09;5.90;;;4.83;;
45368;SDS011;51342;55.250;37.668;2023-05-10T03:51:41;7.57;;;5.07;;
45368;SDS011;51342;55.250;37.668;2023-05-10T03:54:13;8.97;;;5.23;;
45368;SDS011;51342;55.250;37.668;2023-05-10T03:56:45;8.67;;;5.17;;
45368;SDS011;51342;55.250;37.668;2023-05-10T03:59:20;7.10;;;5.03;;
45368;SDS011;51342;55.250;37.668;2023-05-10T04:01:51;5.83;;;5.00;;
45368;SDS011;51342;55.250;37.668;2023-05-10T04:04:23;7.30;;;5.10;;
45368;SDS011;51342;55.250;37.668;2023-05-10T04:06:54;6.70;;;5.30;;
45368;SDS011;51342;55.250;37.668;2023-05-10T04:09:29;9.03;;;5.47;;
45368;SDS011;51342;55.250;37.668;2023-05-10T04:12:00;7.37;;;5.57;;
45368;SDS011;51342;55.250;37.668;2023-05-10T04:14:33;6.83;;;5.00;;
45368;SDS011;51342;55.250;37.668;2023-05-10T04:17:05;7.90;;;4.80;;
45368;SDS011;51342;55.250;37.668;2023-05-10T04:19:37;6.27;;;5.10;;
45368;SDS011;51342;55.250;37.668;2023-05-10T04:22:09;8.97;;;5.33;;
45368;SDS011;51342;55.250;37.668;2023-05-10T04:24:40;7.83;;;5.33;;
45368;SDS011;51342;55.250;37.668;2023-05-10T04:27:12;8.47;;;5.40;;
45368;SDS011;51342;55.250;37.668;2023-05-10T04:29:44;9.07;;;5.30;;
45368;SDS011;51342;55.250;37.668;2023-05-10T04:32:16;8.13;;;5.10;;
45368;SDS011;51342;55.250;37.668;2023-05-10T04:34:48;10.23;;;5.37;;
45368;SDS011;51342;55.250;37.668;2023-05-10T04:37:21;7.87;;;5.30;;
45368;SDS011;51342;55.250;37.668;2023-05-10T04:39:54;8.33;;;5.07;;
45368;SDS011;51342;55.250;37.668;2023-05-10T04:42:25;7.00;;;5.23;;
45368;SDS011;51342;55.250;37.668;2023-05-10T04:44:58;8.20;;;5.47;;
45368;SDS011;51342;55.250;37.668;2023-05-10T04:47:30;8.60;;;5.57;;
45368;SDS011;51342;55.250;37.668;2023-05-10T04:50:03;7.77;;;5.37;;
45368;SDS011;51342;55.250;37.668;2023-05-10T04:54:10;7.67;;;4.83;;
45368;SDS011;51342;55.250;37.668;2023-05-10T04:56:42;8.07;;;4.90;;
45368;SDS011;51342;55.250;37.668;2023-05-10T04:59:15;6.40;;;4.87;;
45368;SDS011;51342;55.250;37.668;2023-05-10T05:01:47;7.53;;;4.77;;
45368;SDS011;51342;55.250;37.668;2023-05-10T05:04:20;7.90;;;4.97;;
45368;SDS011;51342;55.250;37.668;2023-05-10T05:06:54;6.27;;;4.73;;
45368;SDS011;51342;55.250;37.668;2023-05-10T05:09:27;8.00;;;5.43;;
45368;SDS011;51342;55.250;37.668;2023-05-10T05:12:00;10.03;;;4.70;;
45368;SDS011;51342;55.250;37.668;2023-05-10T05:14:33;8.10;;;5.17;;
45368;SDS011;51342;55.250;37.668;2023-05-10T05:17:07;6.20;;;4.90;;
45368;SDS011;51342;55.250;37.668;2023-05-10T05:19:41;7.77;;;5.47;;
45368;SDS011;51342;55.250;37.668;2023-05-10T05:22:13;7.80;;;5.20;;
45368;SDS011;51342;55.250;37.668;2023-05-10T05:24:46;8.87;;;5.10;;
45368;SDS011;51342;55.250;37.668;2023-05-10T05:27:19;7.00;;;5.50;;
45368;SDS011;51342;55.250;37.668;2023-05-10T05:29:58;9.77;;;6.13;;
45368;SDS011;51342;55.250;37.668;2023-05-10T05:32:31;9.93;;;6.03;;
45368;SDS011;51342;55.250;37.668;2023-05-10T05:35:03;8.87;;;6.13;;
45368;SDS011;51342;55.250;37.668;2023-05-10T05:37:37;8.33;;;6.23;;
45368;SDS011;51342;55.250;37.668;2023-05-10T05:40:12;7.67;;;5.07;;
45368;SDS011;51342;55.250;37.668;2023-05-10T05:42:45;10.50;;;6.03;;
45368;SDS011;51342;55.250;37.668;2023-05-10T05:45:18;8.20;;;5.30;;
45368;SDS011;51342;55.250;37.668;2023-05-10T05:47:53;7.97;;;5.53;;
45368;SDS011;51342;55.250;37.668;2023-05-10T05:50:30;9.35;;;4.93;;
45368;SDS011;51342;55.250;37.668;2023-05-10T05:53:05;8.53;;;5.27;;
45368;SDS011;51342;55.250;37.668;2023-05-10T05:55:39;8.03;;;4.80;;
45368;SDS011;51342;55.250;37.668;2023-05-10T05:58:25;7.57;;;5.10;;
45368;SDS011;51342;55.250;37.668;2023-05-10T06:01:00;8.37;;;4.93;;
45368;SDS011;51342;55.250;37.668;2023-05-10T06:03:35;8.43;;;4.93;;
45368;SDS011;51342;55.250;37.668;2023-05-10T06:06:10;9.60;;;4.80;;
45368;SDS011;51342;55.250;37.668;2023-05-10T06:08:44;6.37;;;4.30;;
45368;SDS011;51342;55.250;37.668;2023-05-10T06:11:20;7.33;;;4.90;;
45368;SDS011;51342;55.250;37.668;2023-05-10T06:13:56;6.43;;;4.20;;
45368;SDS011;51342;55.250;37.668;2023-05-10T06:16:32;5.93;;;3.90;;
45368;SDS011;51342;55.250;37.668;2023-05-10T06:19:09;6.05;;;3.63;;
45368;SDS011;51342;55.250;37.668;2023-05-10T06:21:43;6.27;;;4.03;;
45368;SDS011;51342;55.250;37.668;2023-05-10T06:24:18;6.65;;;4.63;;
45368;SDS011;51342;55.250;37.668;2023-05-10T06:26:54;7.03;;;4.10;;
45368;SDS011;51342;55.250;37.668;2023-05-10T06:29:28;6.03;;;3.60;;
45368;SDS011;51342;55.250;37.668;2023-05-10T06:32:02;5.57;;;3.40;;
45368;SDS011;51342;55.250;37.668;2023-05-10T06:34:37;5.72;;;3.40;;
45368;SDS011;51342;55.250;37.668;2023-05-10T06:37:12;4.65;;;3.00;;
45368;SDS011;51342;55.250;37.668;2023-05-10T06:39:48;5.10;;;3.00;;
45368;SDS011;51342;55.250;37.668;2023-05-10T06:42:26;4.07;;;2.75;;
45368;SDS011;51342;55.250;37.668;2023-05-10T06:45:06;6.53;;;2.70;;
45368;SDS011;51342;55.250;37.668;2023-05-10T06:47:44;5.82;;;2.97;;
45368;SDS011;51342;55.250;37.668;2023-05-10T06:50:20;5.95;;;3.22;;
45368;SDS011;51342;55.250;37.668;2023-05-10T06:52:52;5.60;;;2.80;;
45368;SDS011;51342;55.250;37.668;2023-05-10T06:55:29;4.10;;;2.05;;
45368;SDS011;51342;55.250;37.668;2023-05-10T07:00:41;3.28;;;1.60;;
45368;SDS011;51342;55.250;37.668;2023-05-10T07:03:23;4.88;;;2.25;;
45368;SDS011;51342;55.250;37.668;2023-05-10T07:06:01;4.28;;;2.25;;
45368;SDS011;51342;55.250;37.668;2023-05-10T07:08:39;4.10;;;2.10;;
45368;SDS011;51342;55.250;37.668;2023-05-10T07:11:16;5.50;;;2.60;;
45368;SDS011;51342;55.250;37.668;2023-05-10T07:13:54;4.55;;;2.10;;
45368;SDS011;51342;55.250;37.668;2023-05-10T07:16:29;3.47;;;1.73;;
45368;SDS011;51342;55.250;37.668;2023-05-10T07:19:06;4.63;;;2.13;;
45368;SDS011;51342;55.250;37.668;2023-05-10T07:21:46;3.72;;;1.77;;
45368;SDS011;51342;55.250;37.668;2023-05-10T07:24:26;2.70;;;1.20;;
45368;SDS011;51342;55.250;37.668;2023-05-10T07:27:04;4.05;;;1.55;;
45368;SDS011;51342;55.250;37.668;2023-05-10T07:32:15;2.55;;;1.50;;
45368;SDS011;51342;55.250;37.668;2023-05-10T07:34:53;1.90;;;1.20;;
45368;SDS011;51342;55.250;37.668;2023-05-10T07:37:30;4.32;;;1.30;;
45368;SDS011;51342;55.250;37.668;2023-05-10T07:40:07;2.70;;;1.20;;
45368;SDS011;51342;55.250;37.668;2023-05-10T07:42:48;2.13;;;1.40;;
45368;SDS011;51342;55.250;37.668;2023-05-10T07:45:27;2.47;;;1.65;;
45368;SDS011;51342;55.250;37.668;2023-05-10T07:48:02;2.33;;;1.40;;
45368;SDS011;51342;55.250;37.668;2023-05-10T07:50:37;4.22;;;1.52;;
45368;SDS011;51342;55.250;37.668;2023-05-10T07:53:14;4.45;;;1.63;;
45368;SDS011;51342;55.250;37.668;2023-05-10T07:55:51;5.45;;;1.60;;
45368;SDS011;51342;55.250;37.668;2023-05-10T07:58:48;2.13;;;1.40;;
45368;SDS011;51342;55.250;37.668;2023-05-10T08:01:25;3.83;;;1.50;;
45368;SDS011;51342;55.250;37.668;2023-05-10T08:04:08;1.85;;;1.10;;
45368;SDS011;51342;55.250;37.668;2023-05-10T08:06:47;3.92;;;2.15;;
45368;SDS011;51342;55.250;37.668;2023-05-10T08:09:24;1.60;;;1.20;;
45368;SDS011;51342;55.250;37.668;2023-05-10T08:11:59;4.78;;;1.30;;
45368;SDS011;51342;55.250;37.668;2023-05-10T08:14:38;2.38;;;1.20;;
45368;SDS011;51342;55.250;37.668;2023-05-10T08:17:16;2.83;;;1.35;;
45368;SDS011;51342;55.250;37.668;2023-05-10T08:19:50;1.80;;;1.20;;
45368;SDS011;51342;55.250;37.668;2023-05-10T08:22:27;2.15;;;0.98;;
45368;SDS011;51342;55.250;37.668;2023-05-10T08:25:04;1.80;;;1.20;;
45368;SDS011;51342;55.250;37.668;2023-05-10T08:27:41;3.03;;;1.40;;
45368;SDS011;51342;55.250;37.668;2023-05-10T08:30:22;2.72;;;1.13;;
45368;SDS011;51342;55.250;37.668;2023-05-10T08:32:58;2.67;;;1.52;;
45368;SDS011;51342;55.250;37.668;2023-05-10T08:38:14;2.35;;;1.17;;
45368;SDS011;51342;55.250;37.668;2023-05-10T08:40:53;5.20;;;1.35;;
45368;SDS011;51342;55.250;37.668;2023-05-10T08:43:32;4.03;;;1.38;;
45368;SDS011;51342;55.250;37.668;2023-05-10T08:46:10;2.60;;;1.30;;
45368;SDS011;51342;55.250;37.668;2023-05-10T08:48:51;2.47;;;1.40;;
45368;SDS011;51342;55.250;37.668;2023-05-10T08:51:28;3.88;;;1.50;;
45368;SDS011;51342;55.250;37.668;2023-05-10T08:54:09;3.83;;;1.27;;
45368;SDS011;51342;55.250;37.668;2023-05-10T08:56:43;4.22;;;1.63;;
45368;SDS011;51342;55.250;37.668;2023-05-10T08:59:22;2.63;;;1.40;;
45368;SDS011;51342;55.250;37.668;2023-05-10T09:02:02;2.13;;;1.40;;
45368;SDS011;51342;55.250;37.668;2023-05-10T09:04:44;2.55;;;1.42;;
45368;SDS011;51342;55.250;37.668;2023-05-10T09:07:24;2.10;;;1.40;;
45368;SDS011;51342;55.250;37.668;2023-05-10T09:09:59;3.13;;;1.50;;
45368;SDS011;51342;55.250;37.668;2023-05-10T09:12:38;2.80;;;1.42;;
45368;SDS011;51342;55.250;37.668;2023-05-10T09:15:19;2.35;;;1.40;;
45368;SDS011;51342;55.250;37.668;2023-05-10T09:17:57;2.22;;;1.48;;
45368;SDS011;51342;55.250;37.668;2023-05-10T09:20:36;2.53;;;1.63;;
45368;SDS011;51342;55.250;37.668;2023-05-10T09:23:13;3.55;;;1.40;;
45368;SDS011;51342;55.250;37.668;2023-05-10T09:26:05;2.95;;;1.55;;
45368;SDS011;51342;55.250;37.668;2023-05-10T09:28:52;3.42;;;1.50;;
45368;SDS011;51342;55.250;37.668;2023-05-10T09:31:47;3.95;;;1.38;;
45368;SDS011;51342;55.250;37.668;2023-05-10T09:34:30;3.22;;;1.60;;
45368;SDS011;51342;55.250;37.668;2023-05-10T09:37:09;3.22;;;1.77;;
45368;SDS011;51342;55.250;37.668;2023-05-10T09:39:45;2.78;;;1.50;;
45368;SDS011;51342;55.250;37.668;2023-05-10T09:42:21;5.30;;;1.50;;
45368;SDS011;51342;55.250;37.668;2023-05-10T09:45:00;2.78;;;1.33;;
45368;SDS011;51342;55.250;37.668;2023-05-10T09:47:36;3.13;;;1.88;;
45368;SDS011;51342;55.250;37.668;2023-05-10T09:50:16;2.03;;;1.30;;
45368;SDS011;51342;55.250;37.668;2023-05-10T09:52:55;3.05;;;2.25;;
45368;SDS011;51342;55.250;37.668;2023-05-10T09:55:39;2.38;;;1.58;;
45368;SDS011;51342;55.250;37.668;2023-05-10T09:58:21;3.47;;;1.40;;
45368;SDS011;51342;55.250;37.668;2023-05-10T10:00:58;1.40;;;1.25;;
45368;SDS011;51342;55.250;37.668;2023-05-10T10:03:41;3.20;;;1.40;;
45368;SDS011;51342;55.250;37.668;2023-05-10T10:06:23;1.90;;;1.30;;
45368;SDS011;51342;55.250;37.668;2023-05-10T10:09:03;2.80;;;1.40;;
45368;SDS011;51342;55.250;37.668;2023-05-10T10:11:40;2.33;;;1.38;;
45368;SDS011;51342;55.250;37.668;2023-05-10T10:14:21;3.65;;;1.30;;
45368;SDS011;51342;55.250;37.668;2023-05-10T10:17:00;2.72;;;1.40;;
45368;SDS011;51342;55.250;37.668;2023-05-10T10:19:40;3.25;;;1.70;;
45368;SDS011;51342;55.250;37.668;2023-05-10T10:22:13;2.70;;;1.58;;
45368;SDS011;51342;55.250;37.668;2023-05-10T10:24:49;3.75;;;1.70;;
45368;SDS011;51342;55.250;37.668;2023-05-10T10:27:35;3.50;;;1.70;;
45368;SDS011;51342;55.250;37.668;2023-05-10T10:30:37;3.95;;;1.95;;
45368;SDS011;51342;55.250;37.668;2023-05-10T10:36:15;2.60;;;1.60;;
45368;SDS011;51342;55.250;37.668;2023-05-10T10:38:57;4.47;;;1.80;;
45368;SDS011;51342;55.250;37.668;2023-05-10T10:41:38;2.05;;;1.65;;
45368;SDS011;51342;55.250;37.668;2023-05-10T10:50:16;3.70;;;1.70;;
45368;SDS011;51342;55.250;37.668;2023-05-10T10:52:52;4.32;;;1.52;;
45368;SDS011;51342;55.250;37.668;2023-05-10T10:55:30;2.28;;;1.40;;
45368;SDS011;51342;55.250;37.668;2023-05-10T10:58:09;3.92;;;1.95;;
45368;SDS011;51342;55.250;37.668;2023-05-10T11:06:39;2.33;;;1.70;;
45368;SDS011;51342;55.250;37.668;2023-05-10T11:09:15;5.63;;;2.03;;
45368;SDS011;51342;55.250;37.668;2023-05-10T11:11:52;3.55;;;1.63;;
45368;SDS011;51342;55.250;37.668;2023-05-10T11:14:31;3.05;;;1.65;;
45368;SDS011;51342;55.250;37.668;2023-05-10T11:20:14;2.13;;;1.50;;
45368;SDS011;51342;55.250;37.668;2023-05-10T11:22:52;3.33;;;1.70;;
45368;SDS011;51342;55.250;37.668;2023-05-10T11:25:31;5.82;;;1.88;;
45368;SDS011;51342;55.250;37.668;2023-05-10T11:28:10;3.95;;;1.85;;
45368;SDS011;51342;55.250;37.668;2023-05-10T11:30:49;3.08;;;2.10;;
45368;SDS011;51342;55.250;37.668;2023-05-10T11:33:27;3.63;;;1.63;;
45368;SDS011;51342;55.250;37.668;2023-05-10T11:36:05;4.07;;;1.80;;
45368;SDS011;51342;55.250;37.668;2023-05-10T11:38:46;2.38;;;1.40;;
45368;SDS011;51342;55.250;37.668;2023-05-10T11:41:24;3.95;;;1.60;;
45368;SDS011;51342;55.250;37.668;2023-05-10T11:44:01;4.32;;;1.80;;
45368;SDS011;51342;55.250;37.668;2023-05-10T11:46:39;2.97;;;1.80;;
45368;SDS011;51342;55.250;37.668;2023-05-10T11:49:17;4.47;;;1.80;;
45368;SDS011;51342;55.250;37.668;2023-05-10T11:51:52;4.43;;;1.90;;
45368;SDS011;51342;55.250;37.668;2023-05-10T11:54:54;6.47;;;1.80;;
45368;SDS011;51342;55.250;37.668;2023-05-10T11:57:34;4.70;;;2.10;;
45368;SDS011;51342;55.250;37.668;2023-05-10T12:00:11;4.00;;;1.90;;
45368;SDS011;51342;55.250;37.668;2023-05-10T12:02:48;3.42;;;1.92;;
45368;SDS011;51342;55.250;37.668;2023-05-10T12:05:27;3.78;;;2.03;;
45368;SDS011;51342;55.250;37.668;2023-05-10T12:08:19;5.30;;;1.95;;
45368;SDS011;51342;55.250;37.668;2023-05-10T12:11:08;3.53;;;1.90;;
45368;SDS011;51342;55.250;37.668;2023-05-10T12:13:53;4.03;;;1.90;;
45368;SDS011;51342;55.250;37.668;2023-05-10T12:16:28;3.17;;;1.73;;
45368;SDS011;51342;55.250;37.668;2023-05-10T12:19:10;3.47;;;1.67;;
45368;SDS011;51342;55.250;37.668;2023-05-10T12:21:50;7.80;;;1.98;;
45368;SDS011;51342;55.250;37.668;2023-05-10T12:24:25;5.30;;;1.88;;
45368;SDS011;51342;55.250;37.668;2023-05-10T12:27:05;3.33;;;1.88;;
45368;SDS011;51342;55.250;37.668;2023-05-10T12:29:48;4.38;;;2.28;;
45368;SDS011;51342;55.250;37.668;2023-05-10T12:32:28;3.97;;;2.28;;
45368;SDS011;51342;55.250;37.668;2023-05-10T12:35:15;4.00;;;1.98;;
45368;SDS011;51342;55.250;37.668;2023-05-10T12:37:54;6.60;;;2.00;;
45368;SDS011;51342;55.250;37.668;2023-05-10T12:40:30;3.08;;;2.20;;
45368;SDS011;51342;55.250;37.668;2023-05-10T12:43:09;4.03;;;1.98;;
45368;SDS011;51342;55.250;37.668;2023-05-10T12:45:49;4.10;;;1.90;;
45368;SDS011;51342;55.250;37.668;2023-05-10T12:48:26;3.30;;;2.15;;
45368;SDS011;51342;55.250;37.668;2023-05-10T12:51:06;4.38;;;1.98;;
45368;SDS011;51342;55.250;37.668;2023-05-10T12:53:51;3.70;;;1.95;;
45368;SDS011;51342;55.250;37.668;2023-05-10T12:56:31;3.47;;;1.70;;
45368;SDS011;51342;55.250;37.668;2023-05-10T12:59:12;2.85;;;1.85;;
45368;SDS011;51342;55.250;37.668;2023-05-10T13:01:49;2.85;;;1.85;;
45368;SDS011;51342;55.250;37.668;2023-05-10T13:04:25;4.05;;;2.33;;
45368;SDS011;51342;55.250;37.668;2023-05-10T13:07:05;5.18;;;2.30;;
45368;SDS011;51342;55.250;37.668;2023-05-10T13:09:47;5.15;;;1.92;;
45368;SDS011;51342;55.250;37.668;2023-05-10T13:12:28;3.65;;;2.05;;
45368;SDS011;51342;55.250;37.668;2023-05-10T13:15:05;2.55;;;2.00;;
45368;SDS011;51342;55.250;37.668;2023-05-10T13:17:42;2.83;;;1.90;;
45368;SDS011;51342;55.250;37.668;2023-05-10T13:20:21;3.42;;;2.00;;
45368;SDS011;51342;55.250;37.668;2023-05-10T13:23:00;3.33;;;2.22;;
45368;SDS011;51342;55.250;37.668;2023-05-10T13:25:37;4.10;;;1.92;;
45368;SDS011;51342;55.250;37.668;2023-05-10T13:28:13;4.25;;;2.00;;
45368;SDS011;51342;55.250;37.668;2023-05-10T13:30:51;5.85;;;2.47;;
45368;SDS011;51342;55.250;37.668;2023-05-10T13:33:27;3.88;;;1.90;;
45368;SDS011;51342;55.250;37.668;2023-05-10T13:36:02;4.57;;;2.50;;
45368;SDS011;51342;55.250;37.668;2023-05-10T13:38:40;5.63;;;1.98;;
45368;SDS011;51342;55.250;37.668;2023-05-10T13:41:19;6.45;;;2.83;;
45368;SDS011;51342;55.250;37.668;2023-05-10T13:43:54;6.32;;;2.92;;
45368;SDS011;51342;55.250;37.668;2023-05-10T13:46:31;6.43;;;2.80;;
45368;SDS011;51342;55.250;37.668;2023-05-10T13:51:44;4.80;;;2.20;;
45368;SDS011;51342;55.250;37.668;2023-05-10T13:54:19;5.20;;;2.17;;
45368;SDS011;51342;55.250;37.668;2023-05-10T13:56:54;3.75;;;2.00;;
45368;SDS011;51342;55.250;37.668;2023-05-10T13:59:34;4.68;;;1.98;;
45368;SDS011;51342;55.250;37.668;2023-05-10T14:02:09;6.97;;;3.42;;
45368;SDS011;51342;55.250;37.668;2023-05-10T14:04:47;3.70;;;2.33;;
45368;SDS011;51342;55.250;37.668;2023-05-10T14:07:21;5.40;;;2.17;;
45368;SDS011;51342;55.250;37.668;2023-05-10T14:09:59;5.93;;;2.20;;
45368;SDS011;51342;55.250;37.668;2023-05-10T14:12:32;4.75;;;2.17;;
45368;SDS011;51342;55.250;37.668;2023-05-10T14:15:11;5.80;;;3.08;;
45368;SDS011;51342;55.250;37.668;2023-05-10T14:17:48;5.88;;;2.60;;
45368;SDS011;51342;55.250;37.668;2023-05-10T14:20:31;6.55;;;2.30;;
45368;SDS011;51342;55.250;37.668;2023-05-10T14:23:06;6.13;;;2.83;;
45368;SDS011;51342;55.250;37.668;2023-05-10T14:25:40;10.43;;;2.65;;
45368;SDS011;51342;55.250;37.668;2023-05-10T14:28:17;4.43;;;2.35;;
45368;SDS011;51342;55.250;37.668;2023-05-10T14:30:51;4.47;;;2.30;;
45368;SDS011;51342;55.250;37.668;2023-05-10T14:33:27;7.55;;;2.30;;
45368;SDS011;51342;55.250;37.668;2023-05-10T14:36:06;5.63;;;2.70;;
45368;SDS011;51342;55.250;37.668;2023-05-10T14:38:42;6.22;;;2.35;;
45368;SDS011;51342;55.250;37.668;2023-05-10T14:41:18;4.20;;;2.00;;
45368;SDS011;51342;55.250;37.668;2023-05-10T14:43:54;6.28;;;2.70;;
45368;SDS011;51342;55.250;37.668;2023-05-10T14:46:32;3.67;;;2.30;;
45368;SDS011;51342;55.250;37.668;2023-05-10T14:49:12;4.47;;;2.50;;
45368;SDS011;51342;55.250;37.668;2023-05-10T14:51:51;6.13;;;2.58;;
45368;SDS011;51342;55.250;37.668;2023-05-10T14:54:29;6.40;;;2.05;;
45368;SDS011;51342;55.250;37.668;2023-05-10T14:57:09;4.30;;;2.60;;
45368;SDS011;51342;55.250;37.668;2023-05-10T14:59:44;6.25;;;2.50;;
45368;SDS011;51342;55.250;37.668;2023-05-10T15:02:19;4.70;;;2.17;;
45368;SDS011;51342;55.250;37.668;2023-05-10T15:04:57;5.03;;;2.17;;
45368;SDS011;51342;55.250;37.668;2023-05-10T15:07:36;3.95;;;2.28;;
45368;SDS011;51342;55.250;37.668;2023-05-10T15:10:12;4.55;;;2.53;;
45368;SDS011;51342;55.250;37.668;2023-05-10T15:12:51;3.45;;;2.30;;
45368;SDS011;51342;55.250;37.668;2023-05-10T15:15:30;4.85;;;2.22;;
45368;SDS011;51342;55.250;37.668;2023-05-10T15:18:05;4.10;;;2.25;;
45368;SDS011;51342;55.250;37.668;2023-05-10T15:20:44;5.82;;;2.58;;
45368;SDS011;51342;55.250;37.668;2023-05-10T15:23:26;5.25;;;2.70;;
45368;SDS011;51342;55.250;37.668;2023-05-10T15:26:00;3.00;;;2.03;;
45368;SDS011;51342;55.250;37.668;2023-05-10T15:28:41;3.73;;;1.97;;
45368;SDS011;51342;55.250;37.668;2023-05-10T15:31:22;4.65;;;2.10;;
45368;SDS011;51342;55.250;37.668;2023-05-10T15:34:02;4.75;;;2.15;;
45368;SDS011;51342;55.250;37.668;2023-05-10T15:36:37;3.67;;;2.13;;
45368;SDS011;51342;55.250;37.668;2023-05-10T15:39:16;3.35;;;2.13;;
45368;SDS011;51342;55.250;37.668;2023-05-10T15:41:59;3.45;;;2.22;;
45368;SDS011;51342;55.250;37.668;2023-05-10T15:44:40;3.47;;;1.70;;
45368;SDS011;51342;55.250;37.668;2023-05-10T15:47:21;4.57;;;2.05;;
45368;SDS011;51342;55.250;37.668;2023-05-10T15:50:02;4.82;;;2.40;;
45368;SDS011;51342;55.250;37.668;2023-05-10T15:52:40;4.78;;;2.25;;
45368;SDS011;51342;55.250;37.668;2023-05-10T15:55:30;3.42;;;1.98;;
45368;SDS011;51342;55.250;37.668;2023-05-10T15:58:11;5.10;;;2.67;;
45368;SDS011;51342;55.250;37.668;2023-05-10T16:00:49;5.43;;;2.50;;
45368;SDS011;51342;55.250;37.668;2023-05-10T16:03:23;5.82;;;2.70;;
45368;SDS011;51342;55.250;37.668;2023-05-10T16:06:06;6.82;;;2.72;;
45368;SDS011;51342;55.250;37.668;2023-05-10T16:08:48;6.03;;;2.30;;
45368;SDS011;51342;55.250;37.668;2023-05-10T16:11:27;6.65;;;2.58;;
45368;SDS011;51342;55.250;37.668;2023-05-10T16:14:05;6.25;;;2.90;;
45368;SDS011;51342;55.250;37.668;2023-05-10T16:16:42;6.10;;;2.55;;
45368;SDS011;51342;55.250;37.668;2023-05-10T16:19:23;6.47;;;2.35;;
45368;SDS011;51342;55.250;37.668;2023-05-10T16:22:00;4.63;;;2.28;;
45368;SDS011;51342;55.250;37.668;2023-05-10T16:24:40;4.85;;;2.67;;
45368;SDS011;51342;55.250;37.668;2023-05-10T16:27:15;7.10;;;2.78;;
45368;SDS011;51342;55.250;37.668;2023-05-10T16:29:54;4.47;;;2.40;;